Terminal Aerodrome Forecast
Issued by NWS Upton, NY

Home | Current Version | Previous Version | Text Only | Print | Product List | Glossary On
Versions: 1 2 3 4 5 6 7 8 9 10 11 12 13 14 15 16 17 18 19 20 21 22 23 24 25
000
FTUS41 KOKX 270231 AAA
TAFJFK
TAF AMD
KJFK 270231Z 2703/2806 18016G22KT P6SM SCT150 BKN250
     FM270400 20012KT P6SM BKN250
     FM270900 20008KT P6SM SCT012
      TEMPO 2710/2712 3SM BR BKN012
     FM271300 18012KT P6SM BKN035
     FM271500 18016KT P6SM SCT040 BKN200
     FM272000 18018G25KT P6SM BKN200
     FM280200 19014KT P6SM BKN200=

USA.gov is the U.S. government's official web portal to all federal, state and local government web resources and services.